Time;durP1;ratioP1;P1;durP2;ratioP2;P2;SDS_P1;SDS_P2;PMS_P1;PMS_P2;Temp;Humidity;BMP_temperature;BMP_pressure;BME280_temperature;BME280_humidity;BME280_pressure;Samples;Min_cycle;Max_cycle;Signal;HPM_P1;HPM_P2
2022/05/22 00:00:54;;;;;;;;;;;;;;;21.93;35.75;95887.91;10345946;28;1922;-63
2022/05/22 00:05:55;;;;;;;;;;;;;;;21.93;35.55;95888.69;10333717;28;1828;-61
2022/05/22 00:10:55;;;;;;;;;;;;;;;22.00;35.76;95881.22;10346538;28;1805;-62
2022/05/22 00:21:15;;;;;;;;;;;;;;;21.90;35.66;95877.91;10352591;28;2030;-63
2022/05/22 00:26:15;;;;;;;;;;;;;;;21.83;36.24;95878.22;10330198;28;2055;-63
2022/05/22 00:31:16;;;;;;;;;;;;;;;21.72;36.25;95876.72;10347271;28;1971;-63
2022/05/22 00:36:16;;;;;;;;;;;;;;;21.61;36.43;95872.59;10327516;28;2110;-63
2022/05/22 00:41:17;;;;;;;;;;;;;;;21.66;36.43;95869.88;10334872;28;1939;-62
2022/05/22 00:46:18;;;;;;;;;;;;;;;21.58;36.57;95858.09;10324729;28;1892;-63
2022/05/22 00:51:21;;;;;;;;;;;;;;;21.59;36.70;95850.97;10333418;28;1947;-61
2022/05/22 00:56:23;;;;;;;;;;;;;;;21.61;36.98;95843.56;10340920;28;2377;-62
2022/05/22 01:01:23;;;;;;;;;;;;;;;21.52;36.98;95837.31;10326240;28;1910;-62
2022/05/22 01:06:26;;;;;;;;;;;;;;;21.60;36.98;95844.63;10344084;28;1919;-62
2022/05/22 01:11:30;;;;;;;;;;;;;;;21.45;37.10;95842.13;10351311;28;2073;-62
2022/05/22 01:16:33;;;;;;;;;;;;;;;21.54;37.25;95835.19;10341904;28;1957;-62
2022/05/22 01:21:34;;;;;;;;;;;;;;;21.56;37.47;95843.59;10342573;28;2019;-61
2022/05/22 01:26:44;;;;;;;;;;;;;;;21.53;37.60;95849.44;10334458;28;2028;-62
2022/05/22 01:32:03;;;;;;;;;;;;;;;21.56;37.53;95857.59;10355235;28;1998;-64
2022/05/22 01:37:04;;;;;;;;;;;;;;;21.54;37.53;95865.00;10357769;28;1950;-63
2022/05/22 01:42:05;;;;;;;;;;;;;;;21.46;38.04;95856.88;10332165;28;2322;-63
2022/05/22 01:47:05;;;;;;;;;;;;;;;21.23;37.70;95847.03;10335328;28;2379;-63
2022/05/22 01:52:06;;;;;;;;;;;;;;;21.11;38.13;95838.69;10340408;28;1999;-63
2022/05/22 01:57:09;;;;;;;;;;;;;;;21.08;37.92;95830.28;10346603;28;1963;-62
2022/05/22 02:02:09;;;;;;;;;;;;;;;21.13;37.80;95826.03;10335023;28;1930;-63
2022/05/22 02:12:30;;;;;;;;;;;;;;;21.01;37.88;95816.59;10353938;28;1933;-61
2022/05/22 02:17:31;;;;;;;;;;;;;;;20.95;38.00;95812.44;10335836;28;1955;-60
2022/05/22 02:22:31;;;;;;;;;;;;;;;20.87;38.04;95820.13;10353535;28;1974;-63
2022/05/22 02:27:31;;;;;;;;;;;;;;;20.89;38.06;95799.56;10357251;28;2002;-63
2022/05/22 02:32:32;;;;;;;;;;;;;;;20.89;38.05;95797.72;10351600;28;1959;-63
2022/05/22 02:37:39;;;;;;;;;;;;;;;20.80;38.07;95806.44;10352852;28;1912;-63
2022/05/22 02:42:40;;;;;;;;;;;;;;;20.65;38.29;95796.03;10355528;28;1969;-62
2022/05/22 02:47:40;;;;;;;;;;;;;;;20.52;38.40;95788.72;10354761;28;1927;-63
2022/05/22 02:52:41;;;;;;;;;;;;;;;20.54;38.32;95790.03;10347274;28;2173;-62
2022/05/22 02:57:41;;;;;;;;;;;;;;;20.63;38.45;95788.38;10352012;28;1860;-62
2022/05/22 03:02:42;;;;;;;;;;;;;;;20.67;38.38;95792.03;10334995;28;1963;-62
2022/05/22 03:07:42;;;;;;;;;;;;;;;20.71;38.41;95795.69;10357318;28;1738;-62
2022/05/22 03:12:43;;;;;;;;;;;;;;;20.65;38.26;95798.66;10338659;28;2017;-62
2022/05/22 03:17:44;;;;;;;;;;;;;;;20.57;38.52;95796.56;10356077;28;1815;-64
2022/05/22 03:22:44;;;;;;;;;;;;;;;20.51;38.66;95797.66;10320220;28;2026;-63
2022/05/22 03:27:45;;;;;;;;;;;;;;;20.43;38.83;95785.88;10355583;28;1578;-62
2022/05/22 03:32:45;;;;;;;;;;;;;;;20.41;38.92;95781.91;10338120;28;2280;-62
2022/05/22 03:37:45;;;;;;;;;;;;;;;20.37;38.95;95780.91;10360817;28;2126;-62
2022/05/22 03:42:45;;;;;;;;;;;;;;;20.27;39.13;95784.38;10352809;28;2232;-62
2022/05/22 03:47:47;;;;;;;;;;;;;;;20.23;39.08;95767.53;10342646;28;2170;-62
2022/05/22 03:52:47;;;;;;;;;;;;;;;20.06;39.45;95764.41;10346651;28;2370;-63
2022/05/22 03:57:47;;;;;;;;;;;;;;;20.03;39.45;95768.38;10337519;28;1884;-62
2022/05/22 04:02:48;;;;;;;;;;;;;;;20.05;39.64;95762.88;10352698;28;2030;-62
2022/05/22 04:07:49;;;;;;;;;;;;;;;19.88;39.69;95760.56;10352340;28;1983;-61
2022/05/22 04:12:49;;;;;;;;;;;;;;;19.79;39.79;95761.34;10335101;28;1953;-61
2022/05/22 04:17:50;;;;;;;;;;;;;;;19.75;40.15;95768.22;10351371;28;1942;-61
2022/05/22 04:28:09;;;;;;;;;;;;;;;19.51;40.44;95769.84;10354396;28;2246;-60
2022/05/22 04:33:10;;;;;;;;;;;;;;;19.43;40.43;95771.19;10343717;28;1923;-62
2022/05/22 04:38:10;;;;;;;;;;;;;;;19.18;40.67;95768.53;10354342;28;2089;-62
2022/05/22 04:43:11;;;;;;;;;;;;;;;19.25;40.63;95767.22;10349590;28;1942;-62
2022/05/22 04:48:12;;;;;;;;;;;;;;;19.31;40.26;95770.63;10357991;28;1940;-62
2022/05/22 04:53:13;;;;;;;;;;;;;;;19.21;40.51;95774.06;10341653;28;1995;-62
2022/05/22 04:58:15;;;;;;;;;;;;;;;19.24;40.29;95780.63;10340004;28;2293;-62
2022/05/22 05:03:15;;;;;;;;;;;;;;;19.35;40.20;95766.47;10342414;28;1969;-62
2022/05/22 05:08:15;;;;;;;;;;;;;;;19.21;40.06;95745.16;10346521;28;1996;-61
2022/05/22 05:13:16;;;;;;;;;;;;;;;19.24;39.77;95752.53;10355928;28;2190;-62
2022/05/22 05:18:17;;;;;;;;;;;;;;;19.23;39.64;95750.13;10343715;28;2004;-62
2022/05/22 05:23:18;;;;;;;;;;;;;;;19.27;39.74;95751.97;10339291;28;2012;-62
2022/05/22 05:28:18;;;;;;;;;;;;;;;19.25;39.69;95759.34;10341227;28;2015;-61
2022/05/22 05:33:18;;;;;;;;;;;;;;;19.21;39.74;95755.66;10335690;28;1992;-62
2022/05/22 05:38:19;;;;;;;;;;;;;;;19.19;39.14;95754.34;10333435;28;2345;-61
2022/05/22 05:43:19;;;;;;;;;;;;;;;19.22;39.27;95746.75;10355034;28;2155;-61
2022/05/22 05:48:20;;;;;;;;;;;;;;;19.28;38.68;95745.69;10359247;28;2006;-61
2022/05/22 05:53:21;;;;;;;;;;;;;;;19.42;38.80;95752.00;10352444;28;1873;-62
2022/05/22 05:58:21;;;;;;;;;;;;;;;19.66;38.40;95743.53;10359607;28;2070;-62
2022/05/22 06:03:22;;;;;;;;;;;;;;;19.79;37.95;95722.69;10353729;28;2019;-61
2022/05/22 06:08:22;;;;;;;;;;;;;;;19.75;37.29;95718.22;10356362;28;2020;-61
2022/05/22 06:13:23;;;;;;;;;;;;;;;19.83;37.78;95718.47;10347895;28;2011;-60
2022/05/22 06:18:24;;;;;;;;;;;;;;;19.93;37.59;95707.09;10342920;28;2046;-61
2022/05/22 06:23:25;;;;;;;;;;;;;;;19.85;36.90;95697.16;10350697;28;1990;-62
2022/05/22 06:28:26;;;;;;;;;;;;;;;19.73;36.72;95691.41;10349448;28;1998;-62
2022/05/22 06:33:26;;;;;;;;;;;;;;;19.74;36.71;95695.63;10344189;28;1709;-63
2022/05/22 06:43:49;;;;;;;;;;;;;;;19.80;36.39;95679.56;10344251;28;2116;-63
2022/05/22 06:48:50;;;;;;;;;;;;;;;19.71;36.69;95688.28;10349954;28;1991;-63
2022/05/22 06:53:51;;;;;;;;;;;;;;;19.78;36.63;95678.25;10352339;28;2023;-62
2022/05/22 06:58:51;;;;;;;;;;;;;;;19.86;36.86;95675.84;10350330;28;2320;-62
2022/05/22 07:03:51;;;;;;;;;;;;;;;20.02;36.63;95685.25;10351675;28;1975;-66
2022/05/22 07:08:52;;;;;;;;;;;;;;;20.00;37.32;95676.84;10338153;28;2500;-60
2022/05/22 07:13:52;;;;;;;;;;;;;;;20.04;37.75;95669.19;10354047;28;2354;-65
2022/05/22 07:18:52;;;;;;;;;;;;;;;20.18;37.59;95672.78;10352568;28;2006;-60
2022/05/22 07:23:53;;;;;;;;;;;;;;;20.34;37.59;95666.38;10349459;28;2059;-63
2022/05/22 07:28:53;;;;;;;;;;;;;;;20.47;37.35;95673.69;10347002;28;2376;-65
2022/05/22 07:33:54;;;;;;;;;;;;;;;20.59;37.40;95663.56;10342717;28;2427;-64
2022/05/22 07:38:55;;;;;;;;;;;;;;;20.59;36.68;95671.47;10331236;28;2049;-64
2022/05/22 07:43:55;;;;;;;;;;;;;;;20.70;36.71;95659.81;10346533;28;2339;-64
2022/05/22 07:48:55;;;;;;;;;;;;;;;20.78;36.97;95653.16;10330195;28;2394;-63
2022/05/22 07:53:56;;;;;;;;;;;;;;;20.99;37.33;95655.34;10349893;28;1973;-63
2022/05/22 07:58:56;;;;;;;;;;;;;;;21.14;37.43;95651.00;10330094;28;1978;-61
2022/05/22 08:03:57;;;;;;;;;;;;;;;21.25;37.36;95642.72;10338362;28;1943;-63
2022/05/22 08:08:57;;;;;;;;;;;;;;;21.34;37.53;95632.34;10337466;28;2217;-63
2022/05/22 08:13:58;;;;;;;;;;;;;;;21.42;37.70;95637.78;10337723;28;1833;-61
2022/05/22 08:18:58;;;;;;;;;;;;;;;21.49;37.58;95632.16;10339109;28;2303;-63
2022/05/22 08:23:59;;;;;;;;;;;;;;;21.55;37.43;95625.75;10321090;28;2105;-62
2022/05/22 08:29:00;;;;;;;;;;;;;;;21.61;37.74;95622.00;10352332;28;1984;-64
2022/05/22 08:34:00;;;;;;;;;;;;;;;21.65;37.55;95623.78;10353239;28;1773;-63
2022/05/22 08:39:00;;;;;;;;;;;;;;;21.70;37.89;95615.81;10347273;28;1961;-61
2022/05/22 08:44:11;;;;;;;;;;;;;;;21.76;37.77;95608.63;10348213;28;1840;-60
2022/05/22 08:49:20;;;;;;;;;;;;;;;21.80;37.72;95604.34;10348656;28;2002;-62
2022/05/22 08:54:21;;;;;;;;;;;;;;;21.84;37.58;95595.59;10348505;28;1780;-62
2022/05/22 08:59:23;;;;;;;;;;;;;;;21.88;37.71;95599.22;10348887;28;1923;-62
2022/05/22 09:04:33;;;;;;;;;;;;;;;21.92;37.73;95594.19;10314314;28;1842;-63
2022/05/22 09:09:34;;;;;;;;;;;;;;;21.97;37.70;95602.00;10335796;28;1825;-63
2022/05/22 09:14:42;;;;;;;;;;;;;;;22.00;37.84;95600.66;10328487;28;1794;-63
2022/05/22 09:19:43;;;;;;;;;;;;;;;22.04;37.60;95599.81;10344837;28;1918;-62
2022/05/22 09:24:43;;;;;;;;;;;;;;;22.09;37.92;95591.03;10330837;28;1839;-63
2022/05/22 09:29:44;;;;;;;;;;;;;;;22.11;38.00;95588.91;10346415;28;1845;-63
2022/05/22 09:34:50;;;;;;;;;;;;;;;22.15;37.56;95590.69;10332358;28;1863;-62
2022/05/22 09:40:08;;;;;;;;;;;;;;;22.18;37.76;95582.16;10341655;28;1977;-62
2022/05/22 09:45:29;;;;;;;;;;;;;;;22.22;37.82;95582.38;10337433;28;1868;-63
2022/05/22 09:50:39;;;;;;;;;;;;;;;22.25;38.00;95566.75;10355742;28;1808;-63
2022/05/22 09:55:44;;;;;;;;;;;;;;;22.29;37.92;95551.13;10340702;28;1702;-63
2022/05/22 10:00:44;;;;;;;;;;;;;;;22.30;37.76;95540.25;10339388;28;1914;-63
2022/05/22 10:05:50;;;;;;;;;;;;;;;22.34;37.95;95545.75;10346938;28;1863;-63
2022/05/22 10:11:29;;;;;;;;;;;;;;;22.36;37.93;95533.06;10338134;28;2012;-63
2022/05/22 10:16:47;;;;;;;;;;;;;;;22.41;37.69;95522.38;10212359;28;1861;-62
2022/05/22 10:21:57;;;;;;;;;;;;;;;22.43;37.62;95526.31;10319222;28;2196;-62
2022/05/22 10:27:01;;;;;;;;;;;;;;;22.46;37.43;95533.63;10320929;28;1848;-61
2022/05/22 10:32:20;;;;;;;;;;;;;;;22.48;37.46;95515.66;10355240;28;1768;-61
2022/05/22 10:37:23;;;;;;;;;;;;;;;22.52;37.60;95519.28;10354103;28;1832;-63
2022/05/22 10:42:47;;;;;;;;;;;;;;;22.57;37.47;95511.28;10335299;28;1910;-63
2022/05/22 10:47:48;;;;;;;;;;;;;;;22.59;37.57;95506.50;10325659;28;1815;-63
2022/05/22 10:52:49;;;;;;;;;;;;;;;22.65;37.47;95499.25;10327042;28;1822;-63
2022/05/22 10:57:53;;;;;;;;;;;;;;;22.71;37.66;95497.34;10341524;28;1818;-63
2022/05/22 11:02:54;;;;;;;;;;;;;;;22.75;37.57;95485.09;10346444;28;1906;-63
2022/05/22 11:07:56;;;;;;;;;;;;;;;22.78;37.82;95476.56;10356883;28;1812;-64
2022/05/22 11:13:06;;;;;;;;;;;;;;;22.80;37.66;95471.78;10343582;28;1840;-63
2022/05/22 11:18:09;;;;;;;;;;;;;;;22.82;37.72;95465.13;10353941;28;1789;-60
2022/05/22 11:23:12;;;;;;;;;;;;;;;22.84;37.66;95462.19;10348160;28;1906;-63
2022/05/22 11:28:31;;;;;;;;;;;;;;;22.87;37.63;95456.31;10353841;28;1813;-63
2022/05/22 11:33:47;;;;;;;;;;;;;;;22.89;37.59;95448.88;10348859;28;1918;-63
2022/05/22 11:38:54;;;;;;;;;;;;;;;22.90;37.50;95450.44;10332962;28;1903;-63
2022/05/22 11:43:58;;;;;;;;;;;;;;;22.92;37.94;95448.28;10314200;28;2007;-62
2022/05/22 11:49:04;;;;;;;;;;;;;;;22.93;37.72;95436.63;10337259;28;1817;-64
2022/05/22 11:54:05;;;;;;;;;;;;;;;22.96;38.02;95428.09;10333495;28;1769;-62
2022/05/22 11:59:21;;;;;;;;;;;;;;;22.98;38.04;95423.31;10336171;28;1973;-63
2022/05/22 12:04:31;;;;;;;;;;;;;;;23.00;38.03;95431.75;10341352;28;1842;-60
2022/05/22 12:09:50;;;;;;;;;;;;;;;23.00;38.11;95426.47;10354329;28;1843;-62
2022/05/22 12:15:04;;;;;;;;;;;;;;;23.03;38.24;95410.78;10351733;28;1769;-63
2022/05/22 12:20:16;;;;;;;;;;;;;;;23.04;38.32;95407.03;10353785;28;1914;-62
2022/05/22 12:25:17;;;;;;;;;;;;;;;23.06;38.17;95404.88;10317861;28;1844;-64
2022/05/22 12:30:22;;;;;;;;;;;;;;;23.09;38.27;95400.88;10323936;28;1832;-62
2022/05/22 12:35:24;;;;;;;;;;;;;;;23.10;38.28;95400.56;10350737;28;1836;-63
2022/05/22 12:40:24;;;;;;;;;;;;;;;23.11;38.45;95393.41;10329827;28;1914;-64
2022/05/22 12:45:25;;;;;;;;;;;;;;;23.12;38.48;95393.13;10336660;28;1796;-63
2022/05/22 12:50:34;;;;;;;;;;;;;;;23.13;38.26;95399.19;10319484;28;2149;-63
2022/05/22 12:55:35;;;;;;;;;;;;;;;23.15;38.47;95391.75;10327137;28;1832;-63
2022/05/22 13:00:41;;;;;;;;;;;;;;;23.15;38.58;95402.31;10336641;28;1918;-64
2022/05/22 13:05:42;;;;;;;;;;;;;;;23.17;38.70;95386.94;10360699;28;1784;-64
2022/05/22 13:10:48;;;;;;;;;;;;;;;23.20;38.61;95375.78;10341681;28;1769;-64
2022/05/22 13:16:01;;;;;;;;;;;;;;;23.20;38.22;95370.50;10343430;28;1706;-63
2022/05/22 13:21:02;;;;;;;;;;;;;;;23.21;38.49;95361.47;10359452;28;1918;-64
2022/05/22 13:26:06;;;;;;;;;;;;;;;23.22;38.48;95360.41;10353970;28;1867;-64
2022/05/22 13:31:07;;;;;;;;;;;;;;;23.23;38.55;95356.66;10342303;28;1785;-63
2022/05/22 13:36:21;;;;;;;;;;;;;;;23.24;38.70;95348.44;10346868;28;1884;-62
2022/05/22 13:41:30;;;;;;;;;;;;;;;23.25;38.51;95344.69;10336466;28;1989;-64
2022/05/22 13:46:50;;;;;;;;;;;;;;;23.26;38.49;95334.91;10331056;28;1863;-63
2022/05/22 13:57:11;;;;;;;;;;;;;;;23.28;38.65;95338.03;10359672;28;1772;-64
2022/05/22 14:02:12;;;;;;;;;;;;;;;23.29;38.92;95315.78;10356285;28;2033;-62
2022/05/22 14:07:28;;;;;;;;;;;;;;;23.29;38.89;95319.22;10324840;28;1780;-64
2022/05/22 14:12:30;;;;;;;;;;;;;;;23.28;38.90;95311.59;10355779;28;1979;-62
2022/05/22 14:17:31;;;;;;;;;;;;;;;23.32;38.98;95300.16;10376089;28;1827;-65
2022/05/22 14:22:32;;;;;;;;;;;;;;;23.32;39.12;95296.72;10376394;28;1989;-66
2022/05/22 14:27:52;;;;;;;;;;;;;;;23.35;39.08;95286.31;10378400;28;1887;-64
2022/05/22 14:32:56;;;;;;;;;;;;;;;23.37;39.21;95276.19;10381113;28;1815;-65
2022/05/22 14:37:58;;;;;;;;;;;;;;;23.38;39.23;95280.44;10363574;28;1839;-65
2022/05/22 14:43:00;;;;;;;;;;;;;;;23.41;39.21;95271.13;10372024;28;1967;-63
2022/05/22 14:48:04;;;;;;;;;;;;;;;23.41;39.42;95268.47;10361563;28;1844;-65
2022/05/22 14:53:06;;;;;;;;;;;;;;;23.42;38.94;95275.31;10359108;28;1961;-63
2022/05/22 14:58:08;;;;;;;;;;;;;;;23.44;39.43;95273.13;10362222;28;1855;-64
2022/05/22 15:03:24;;;;;;;;;;;;;;;23.45;39.29;95264.13;10354974;28;1950;-64
2022/05/22 15:08:26;;;;;;;;;;;;;;;23.44;39.23;95263.34;10353002;28;1986;-61
2022/05/22 15:13:30;;;;;;;;;;;;;;;23.45;39.32;95264.13;10348580;28;1781;-62
2022/05/22 15:29:14;;;;;;;;;;;;;;;23.47;39.41;95251.38;10339332;28;1761;-62
2022/05/22 15:34:22;;;;;;;;;;;;;;;23.48;39.30;95274.09;10340636;28;1843;-63
2022/05/22 15:39:29;;;;;;;;;;;;;;;23.49;39.26;95265.09;10366869;28;1906;-65
2022/05/22 15:44:29;;;;;;;;;;;;;;;23.49;39.80;95265.09;10342410;28;1813;-65
2022/05/22 15:54:56;;;;;;;;;;;;;;;23.52;39.67;95268.97;10331073;28;1792;-64
2022/05/22 15:59:57;;;;;;;;;;;;;;;23.53;39.66;95268.69;10336730;28;1910;-65
2022/05/22 16:04:58;;;;;;;;;;;;;;;23.52;39.35;95267.09;10337609;28;1864;-64
2022/05/22 16:09:58;;;;;;;;;;;;;;;23.52;39.11;95269.75;10330099;28;1933;-65
2022/05/22 16:14:58;;;;;;;;;;;;;;;23.52;39.31;95269.75;10324157;28;1859;-63
2022/05/22 16:19:59;;;;;;;;;;;;;;;23.53;39.37;95270.53;10332225;28;2229;-65
2022/05/22 16:24:59;;;;;;;;;;;;;;;23.52;39.28;95277.69;10351118;28;1859;-65
2022/05/22 16:30:00;;;;;;;;;;;;;;;23.52;39.26;95280.34;10352309;28;1871;-65
2022/05/22 16:35:01;;;;;;;;;;;;;;;23.52;38.96;95280.34;10350417;28;1994;-65
2022/05/22 16:40:01;;;;;;;;;;;;;;;23.52;38.76;95268.97;10347791;28;1910;-63
2022/05/22 16:45:02;;;;;;;;;;;;;;;23.51;38.89;95278.78;10359568;28;1811;-63
2022/05/22 16:55:22;;;;;;;;;;;;;;;23.53;38.72;95279.28;10359874;28;1880;-64
2022/05/22 17:00:22;;;;;;;;;;;;;;;23.54;38.67;95272.09;10350722;28;1986;-63
2022/05/22 17:05:24;;;;;;;;;;;;;;;23.54;38.65;95267.59;10341980;28;1800;-63
2022/05/22 17:10:24;;;;;;;;;;;;;;;23.54;38.79;95269.44;10337749;28;1835;-65
2022/05/22 17:15:24;;;;;;;;;;;;;;;23.54;38.58;95245.63;10341484;28;1880;-64
2022/05/22 17:20:25;;;;;;;;;;;;;;;23.54;38.73;95246.41;10352694;28;1972;-65
2022/05/22 17:25:26;;;;;;;;;;;;;;;23.55;38.92;95242.72;10347515;28;1796;-64
2022/05/22 17:30:27;;;;;;;;;;;;;;;23.55;38.59;95255.94;10341156;28;1670;-64
2022/05/22 17:35:28;;;;;;;;;;;;;;;23.55;38.76;95249.84;10343839;28;2809;-65
2022/05/22 17:40:34;;;;;;;;;;;;;;;23.55;38.94;95258.59;10325189;28;1989;-65
2022/05/22 17:45:35;;;;;;;;;;;;;;;23.54;39.01;95267.59;10344646;28;1942;-65
2022/05/22 17:50:38;;;;;;;;;;;;;;;23.56;38.89;95272.56;10336880;28;1916;-65
2022/05/22 17:55:41;;;;;;;;;;;;;;;23.56;38.88;95270.72;10335880;28;1817;-65
2022/05/22 18:00:42;;;;;;;;;;;;;;;23.57;38.95;95276.78;10353237;28;1922;-65
2022/05/22 18:05:42;;;;;;;;;;;;;;;23.56;38.74;95275.22;10357791;28;1812;-66
2022/05/22 18:16:03;;;;;;;;;;;;;;;23.57;38.75;95276.78;10353924;28;1828;-63
2022/05/22 18:21:04;;;;;;;;;;;;;;;23.56;38.31;95280.50;10334897;28;1922;-64
2022/05/22 18:26:04;;;;;;;;;;;;;;;23.56;38.60;95281.28;10335603;28;1932;-63
2022/05/22 18:31:04;;;;;;;;;;;;;;;23.57;38.75;95276.78;10350841;28;1816;-62
2022/05/22 18:36:05;;;;;;;;;;;;;;;23.57;38.57;95282.06;10322888;28;1873;-64
2022/05/22 18:41:05;;;;;;;;;;;;;;;23.58;38.88;95267.75;10337583;28;2012;-64
2022/05/22 18:46:09;;;;;;;;;;;;;;;23.58;38.80;95251.88;10341769;28;1850;-64
2022/05/22 18:51:10;;;;;;;;;;;;;;;23.58;38.98;95241.28;10346457;28;1979;-65
2022/05/22 18:56:18;;;;;;;;;;;;;;;23.49;37.26;95219.31;10339660;28;1804;-64
2022/05/22 19:01:23;;;;;;;;;;;;;;;23.22;35.86;95205.16;10321956;28;1975;-63
2022/05/22 19:06:23;;;;;;;;;;;;;;;23.11;35.55;95190.63;10324650;28;1491;-62
2022/05/22 19:11:23;;;;;;;;;;;;;;;23.09;36.11;95176.94;10344759;28;1507;-64
2022/05/22 19:16:28;;;;;;;;;;;;;;;23.04;35.81;95163.06;10334628;28;1530;-64
2022/05/22 19:21:29;;;;;;;;;;;;;;;22.85;35.98;95157.22;10358679;28;2346;-65
2022/05/22 19:26:32;;;;;;;;;;;;;;;22.80;36.04;95158.09;10335297;28;1301;-65
2022/05/22 19:31:33;;;;;;;;;;;;;;;22.94;36.36;95156.16;10360418;28;1604;-65
2022/05/22 19:36:33;;;;;;;;;;;;;;;23.06;36.25;95169.59;10346859;28;1491;-66
2022/05/22 19:46:55;;;;;;;;;;;;;;;23.22;36.07;95159.44;10321385;28;2379;-64
2022/05/22 19:51:57;;;;;;;;;;;;;;;23.06;35.42;95182.06;10336223;28;2428;-65
2022/05/22 20:02:17;;;;;;;;;;;;;;;23.26;36.80;95192.13;10333382;28;2379;-63
2022/05/22 20:07:17;;;;;;;;;;;;;;;23.33;36.84;95200.41;10346185;28;2344;-61
2022/05/22 20:12:18;;;;;;;;;;;;;;;23.40;37.01;95206.06;10346117;28;2351;-65
2022/05/22 20:17:18;;;;;;;;;;;;;;;23.47;37.13;95235.50;10333100;28;2295;-62
2022/05/22 20:22:19;;;;;;;;;;;;;;;23.50;37.01;95234.88;10342029;28;2311;-60
2022/05/22 20:27:19;;;;;;;;;;;;;;;23.51;36.94;95220.59;10333189;28;2396;-61
2022/05/22 20:32:20;;;;;;;;;;;;;;;23.54;37.17;95204.09;10364500;28;2243;-62
2022/05/22 20:37:20;;;;;;;;;;;;;;;23.55;37.27;95194.31;10351680;28;2353;-60
2022/05/22 20:42:21;;;;;;;;;;;;;;;23.57;37.54;95202.72;10346272;28;2574;-64
2022/05/22 20:47:21;;;;;;;;;;;;;;;23.58;37.50;95206.91;10351245;28;2561;-63
2022/05/22 20:52:22;;;;;;;;;;;;;;;23.59;37.41;95201.31;10351450;28;2165;-63
2022/05/22 20:57:23;;;;;;;;;;;;;;;23.61;37.55;95183.28;10352138;28;2073;-61
2022/05/22 21:02:24;;;;;;;;;;;;;;;23.62;37.64;95184.06;10345818;28;2240;-64
2022/05/22 21:07:26;;;;;;;;;;;;;;;23.63;38.00;95202.28;10331032;28;2308;-65
2022/05/22 21:12:27;;;;;;;;;;;;;;;23.64;38.14;95203.81;10336464;28;2280;-63
2022/05/22 21:17:28;;;;;;;;;;;;;;;23.65;38.25;95200.09;10352525;28;2137;-65
2022/05/22 21:22:29;;;;;;;;;;;;;;;23.66;38.41;95185.00;10346285;28;2251;-60
2022/05/22 21:32:48;;;;;;;;;;;;;;;23.68;38.45;95157.13;10351722;28;2596;-63
2022/05/22 21:37:49;;;;;;;;;;;;;;;23.70;38.73;95160.25;10343534;28;2126;-64
2022/05/22 21:42:49;;;;;;;;;;;;;;;23.71;38.95;95155.75;10341189;28;2438;-61
2022/05/22 21:47:49;;;;;;;;;;;;;;;23.72;39.13;95147.50;10337070;28;2281;-63
2022/05/22 21:52:50;;;;;;;;;;;;;;;23.73;39.11;95146.44;10359112;28;2181;-63
2022/05/22 21:57:50;;;;;;;;;;;;;;;23.74;38.77;95137.38;10359811;28;2298;-63
2022/05/22 22:02:50;;;;;;;;;;;;;;;23.75;39.07;95120.44;10357118;28;2193;-62
2022/05/22 22:07:51;;;;;;;;;;;;;;;23.76;39.27;95116.69;10332399;28;2305;-62
2022/05/22 22:12:51;;;;;;;;;;;;;;;23.77;39.30;95110.31;10358640;28;2188;-65
2022/05/22 22:17:52;;;;;;;;;;;;;;;23.77;39.23;95094.44;10341391;28;2177;-65
2022/05/22 22:22:52;;;;;;;;;;;;;;;23.78;39.57;95098.63;10356437;28;2248;-64
2022/05/22 22:27:54;;;;;;;;;;;;;;;23.80;39.41;95103.63;10347024;28;2308;-62
2022/05/22 22:32:55;;;;;;;;;;;;;;;23.81;39.46;95090.09;10340766;28;2312;-64
2022/05/22 22:37:56;;;;;;;;;;;;;;;23.81;39.35;95087.44;10356127;28;2190;-61
2022/05/22 22:42:57;;;;;;;;;;;;;;;23.80;39.43;95091.16;10338260;28;2320;-64
2022/05/22 22:48:00;;;;;;;;;;;;;;;23.81;39.41;95082.16;10352910;28;2071;-60
2022/05/22 22:53:00;;;;;;;;;;;;;;;23.82;39.68;95067.81;10341026;28;2303;-65
2022/05/22 22:58:06;;;;;;;;;;;;;;;23.83;39.84;95060.66;10343876;28;2260;-65
2022/05/22 23:03:07;;;;;;;;;;;;;;;23.86;39.87;95066.13;10333039;28;2352;-64
2022/05/22 23:08:07;;;;;;;;;;;;;;;23.87;40.02;95065.03;10352616;28;2264;-63
2022/05/22 23:13:09;;;;;;;;;;;;;;;23.87;40.17;95053.66;10338092;28;2165;-63
2022/05/22 23:18:11;;;;;;;;;;;;;;;23.87;40.22;95056.28;10350101;28;2295;-64
2022/05/22 23:23:13;;;;;;;;;;;;;;;23.88;40.40;95052.56;10338276;28;2224;-60
2022/05/22 23:28:13;;;;;;;;;;;;;;;23.89;40.15;95046.19;10339097;28;2284;-64
2022/05/22 23:33:13;;;;;;;;;;;;;;;23.88;40.00;95044.63;10335610;28;2244;-61
2022/05/22 23:38:14;;;;;;;;;;;;;;;23.89;40.47;95049.59;10340507;28;2209;-62
2022/05/22 23:43:14;;;;;;;;;;;;;;;23.90;40.27;95040.59;10339416;28;2178;-62
2022/05/22 23:48:14;;;;;;;;;;;;;;;23.91;40.40;95028.91;10325681;28;2165;-64
2022/05/22 23:53:15;;;;;;;;;;;;;;;23.91;40.40;95022.81;10335797;28;2306;-61
2022/05/22 23:58:15;;;;;;;;;;;;;;;23.93;40.69;95018.00;10321822;28;2268;-62
